Terminal Aerodrome Forecast
Issued by NWS Charleston, WV

Current Version | Previous Version | Graphics & Text | Print | Product List | Glossary On
Versions: 1 2 3 4 5 6 7 8 9 10 11 12 13 14 15 16 17 18 19 20 21 22
295
FTUS41 KRLX 111120
TAFBKW
TAF
KBKW 111120Z 1112/1212 29010G16KT P6SM BKN025
     FM111700 30010G15KT P6SM BKN035
     FM120000 31006KT P6SM SCT250
     FM120400 00000KT P6SM BKN200
     FM120600 00000KT P6SM BKN090=

USA.gov is the U.S. government's official web portal to all federal, state and local government web resources and services.